Time;durP1;ratioP1;P1;durP2;ratioP2;P2;SDS_P1;SDS_P2;PMS_P1;PMS_P2;Temp;Humidity;BMP_temperature;BMP_pressure;BME280_temperature;BME280_humidity;BME280_pressure;Samples;Min_cycle;Max_cycle;Signal;HPM_P1;HPM_P2
2022/10/26 00:00:16;;;;;;;32.60;4.53;;;;;;;8.52;100.00;98685.94;2641229;28;20048;-81
2022/10/26 00:01:52;;;;;;;20.90;4.55;;;;;;;8.53;100.00;98680.72;2641337;28;20136;-80
2022/10/26 00:03:08;;;;;;;23.00;4.97;;;;;;;8.47;100.00;98685.97;2641332;28;20096;-80
2022/10/26 00:04:23;;;;;;;24.65;5.88;;;;;;;8.24;100.00;98679.38;2641134;28;20386;-80
2022/10/26 00:05:39;;;;;;;36.13;5.43;;;;;;;8.24;100.00;98686.34;2641366;28;20047;-80
2022/10/26 00:06:54;;;;;;;46.05;5.50;;;;;;;8.16;100.00;98683.84;2641274;28;20477;-80
2022/10/26 00:08:10;;;;;;;38.25;5.70;;;;;;;8.19;100.00;98686.41;2641402;28;20065;-80
2022/10/26 00:09:26;;;;;;;65.95;7.15;;;;;;;8.14;100.00;98693.44;2641476;28;20497;-81
2022/10/26 00:10:42;;;;;;;48.75;5.55;;;;;;;7.99;100.00;98686.69;2641577;28;20048;-80
2022/10/26 00:12:01;;;;;;;45.80;6.45;;;;;;;8.14;100.00;98694.28;2641398;28;20404;-80
2022/10/26 00:13:17;;;;;;;43.08;5.75;;;;;;;8.25;100.00;98694.16;2641623;28;20048;-80
2022/10/26 00:14:32;;;;;;;39.33;6.03;;;;;;;8.38;100.00;98693.94;2641427;28;20472;-80
2022/10/26 00:15:48;;;;;;;27.15;5.10;;;;;;;8.34;100.00;98687.94;2641376;28;20176;-80
2022/10/26 00:17:03;;;;;;;20.45;5.05;;;;;;;8.40;100.00;98693.03;2641315;28;20039;-80
2022/10/26 00:18:20;;;;;;;15.65;4.40;;;;;;;8.22;100.00;98696.78;2641150;28;20070;-81
2022/10/26 00:19:37;;;;;;;31.70;5.53;;;;;;;8.31;100.00;98698.38;2640566;28;20481;-80
2022/10/26 00:20:52;;;;;;;28.85;5.03;;;;;;;8.10;100.00;98692.59;2640816;28;20100;-80
2022/10/26 00:22:08;;;;;;;31.75;5.35;;;;;;;8.06;100.00;98697.00;2640743;28;20435;-80
2022/10/26 00:23:23;;;;;;;21.85;4.35;;;;;;;8.32;100.00;98700.97;2640801;28;20047;-80
2022/10/26 00:24:39;;;;;;;31.15;5.13;;;;;;;8.28;100.00;98695.81;2640948;28;20040;-80
2022/10/26 00:25:55;;;;;;;16.77;4.82;;;;;;;8.32;100.00;98687.09;2641195;28;20048;-81
2022/10/26 00:27:11;;;;;;;14.32;5.07;;;;;;;8.54;100.00;98690.28;2641110;28;20075;-80
2022/10/26 00:28:27;;;;;;;33.20;4.78;;;;;;;8.41;100.00;98688.69;2641425;28;20055;-80
2022/10/26 00:29:43;;;;;;;30.45;5.40;;;;;;;8.58;100.00;98688.44;2642896;28;20040;-80
2022/10/26 00:31:04;;;;;;;31.33;4.70;;;;;;;8.54;100.00;98684.19;2643214;28;20480;-80
2022/10/26 00:32:20;;;;;;;21.88;4.50;;;;;;;8.51;100.00;98687.69;2643264;28;20138;-81
2022/10/26 00:33:36;;;;;;;26.73;4.78;;;;;;;8.65;100.00;98691.81;2643511;28;20501;-81
2022/10/26 00:34:51;;;;;;;24.60;4.45;;;;;;;8.63;100.00;98691.88;2643625;28;20100;-80
2022/10/26 00:36:08;;;;;;;23.63;4.50;;;;;;;8.61;100.00;98694.50;2643722;28;20047;-80
2022/10/26 00:37:24;;;;;;;26.13;3.97;;;;;;;8.15;100.00;98695.16;2643303;28;20497;-80
2022/10/26 00:38:44;;;;;;;17.38;4.28;;;;;;;8.31;100.00;98691.44;2643323;28;20082;-80
2022/10/26 00:40:00;;;;;;;26.02;4.68;;;;;;;8.44;100.00;98693.88;2643462;28;20676;-80
2022/10/26 00:41:18;;;;;;;20.80;3.95;;;;;;;8.03;100.00;98693.56;2643346;28;20043;-80
2022/10/26 00:42:34;;;;;;;16.27;4.45;;;;;;;8.13;100.00;98689.94;2643277;28;20970;-80
2022/10/26 00:43:50;;;;;;;38.63;5.07;;;;;;;8.10;100.00;98689.13;2643251;28;20043;-80
2022/10/26 00:45:26;;;;;;;28.60;4.53;;;;;;;7.99;100.00;98678.84;2643229;28;20048;-80
2022/10/26 00:46:42;;;;;;;33.70;4.63;;;;;;;7.96;100.00;98691.94;2642961;28;20044;-80
2022/10/26 00:48:02;;;;;;;34.53;4.97;;;;;;;7.81;100.00;98683.44;2643277;28;20507;-80
2022/10/26 00:49:19;;;;;;;45.10;5.43;;;;;;;8.02;100.00;98686.63;2643248;28;20055;-80
2022/10/26 00:50:41;;;;;;;62.08;5.30;;;;;;;7.81;100.00;98683.44;2643066;28;20054;-80
2022/10/26 00:51:57;;;;;;;52.40;5.95;;;;;;;7.80;100.00;98686.06;2643213;28;20048;-82
2022/10/26 00:53:13;;;;;;;50.13;6.45;;;;;;;7.80;100.00;98681.72;2643318;28;20067;-80
2022/10/26 00:54:28;;;;;;;52.00;6.40;;;;;;;8.14;100.00;98676.03;2642965;28;20048;-80
2022/10/26 00:55:47;;;;;;;51.83;5.90;;;;;;;7.91;100.00;98677.22;2643278;28;20048;-80
2022/10/26 00:57:03;;;;;;;38.90;5.43;;;;;;;7.91;100.00;98681.56;2643127;28;20044;-80
2022/10/26 00:58:20;;;;;;;41.75;5.38;;;;;;;8.08;100.00;98683.06;2643086;28;20665;-80
2022/10/26 00:59:36;;;;;;;80.75;6.68;;;;;;;8.06;100.00;98686.56;2643147;28;20478;-80
2022/10/26 01:00:52;;;;;;;79.82;6.78;;;;;;;8.19;100.00;98681.19;2643178;28;20476;-80
2022/10/26 01:02:07;;;;;;;52.63;6.53;;;;;;;8.05;100.00;98684.00;2643004;28;20075;-80
2022/10/26 01:03:24;;;;;;;79.65;9.70;;;;;;;8.14;100.00;98685.63;2642926;28;20494;-81
2022/10/26 01:04:39;;;;;;;99.05;8.07;;;;;;;8.14;100.00;98686.47;2643019;28;20524;-80
2022/10/26 01:05:56;;;;;;;67.60;6.55;;;;;;;8.12;100.00;98680.41;2643078;28;20047;-80
2022/10/26 01:07:12;;;;;;;113.00;9.63;;;;;;;8.22;100.00;98675.91;2642994;28;20051;-80
2022/10/26 01:08:28;;;;;;;83.30;6.85;;;;;;;8.03;100.00;98678.78;2643097;28;20108;-81
2022/10/26 01:09:44;;;;;;;151.20;10.35;;;;;;;8.11;100.00;98680.44;2642825;28;20111;-80
2022/10/26 01:11:00;;;;;;;91.28;8.35;;;;;;;8.14;100.00;98680.41;2643185;28;20063;-80
2022/10/26 01:12:16;;;;;;;119.90;9.75;;;;;;;8.23;100.00;98677.63;2642893;28;20054;-80
2022/10/26 01:13:34;;;;;;;60.80;6.45;;;;;;;8.20;100.00;98681.16;2642923;28;20077;-80
2022/10/26 01:14:50;;;;;;;123.53;9.82;;;;;;;8.25;100.00;98677.63;2642955;28;20055;-80
2022/10/26 01:16:21;;;;;;;149.70;11.38;;;;;;;8.22;100.00;98675.91;2642924;28;20059;-80
2022/10/26 01:17:55;;;;;;;102.88;8.63;;;;;;;8.13;100.00;98683.88;2642744;28;20040;-81
2022/10/26 01:19:56;;;;;;;15.35;4.55;;;;;;;8.24;100.00;98679.38;2642945;28;20047;-81
2022/10/26 01:21:11;;;;;;;130.43;9.63;;;;;;;8.38;100.00;98680.91;2642851;28;20055;-81
2022/10/26 01:22:56;;;;;;;109.50;9.15;;;;;;;8.30;100.00;98676.69;2643077;28;20048;-81
2022/10/26 01:24:25;;;;;;;114.63;8.10;;;;;;;8.29;100.00;98677.56;2635834;28;20452;-81
2022/10/26 01:25:50;;;;;;;130.77;7.03;;;;;;;8.02;100.00;98677.06;2642909;28;20039;-81
2022/10/26 01:27:23;;;;;;;93.45;6.30;;;;;;;7.66;100.00;98679.25;2642753;28;20047;-80
2022/10/26 01:28:57;;;;;;;132.52;9.57;;;;;;;7.90;100.00;98679.84;2642693;28;20043;-80
2022/10/26 01:30:35;;;;;;;92.05;6.22;;;;;;;7.70;100.00;98682.69;2642617;28;20048;-80
2022/10/26 01:31:58;;;;;;;65.05;5.05;;;;;;;7.64;100.00;98681.03;2642747;28;20055;-80
2022/10/26 01:33:29;;;;;;;23.00;4.38;;;;;;;7.54;100.00;98685.50;2642953;28;20082;-80
2022/10/26 01:34:59;;;;;;;68.95;7.15;;;;;;;7.82;100.00;98679.94;2643043;28;20043;-80
2022/10/26 01:36:32;;;;;;;71.95;5.40;;;;;;;7.70;100.00;98677.50;2642796;28;20046;-80
2022/10/26 01:37:58;;;;;;;99.10;7.15;;;;;;;7.89;100.00;98686.81;2642855;28;20048;-80
2022/10/26 01:39:20;;;;;;;53.83;4.78;;;;;;;7.53;100.00;98683.78;2642717;28;20063;-81
2022/10/26 01:40:48;;;;;;;50.70;5.47;;;;;;;7.61;100.00;98681.06;2642745;28;20625;-79
2022/10/26 01:42:07;;;;;;;38.58;4.10;;;;;;;7.38;100.00;98684.81;2631470;28;20040;-80
2022/10/26 01:43:25;;;;;;;12.25;4.13;;;;;;;7.67;100.00;98683.59;2636552;28;20052;-80
2022/10/26 01:44:46;;;;;;;29.67;4.35;;;;;;;7.82;100.00;98684.28;2642689;28;20093;-80
2022/10/26 01:46:05;;;;;;;25.98;4.63;;;;;;;7.85;100.00;98676.44;2642751;28;20571;-80
2022/10/26 01:47:22;;;;;;;21.73;3.80;;;;;;;7.62;100.00;98673.25;2642676;28;20563;-80
2022/10/26 01:48:41;;;;;;;38.00;4.47;;;;;;;7.87;100.00;98669.47;2642670;28;20162;-80
2022/10/26 01:49:59;;;;;;;33.95;4.10;;;;;;;7.80;100.00;98673.00;2642497;28;20062;-80
2022/10/26 01:51:15;;;;;;;27.05;4.53;;;;;;;7.73;100.00;98669.63;2642557;28;20465;-80
2022/10/26 01:52:30;;;;;;;23.52;3.83;;;;;;;7.69;100.00;98671.44;2642337;28;20044;-81
2022/10/26 01:53:46;;;;;;;25.25;3.88;;;;;;;7.63;100.00;98664.56;2642542;28;20138;-80
2022/10/26 01:55:35;;;;;;;13.02;2.97;;;;;;;7.75;100.00;98663.53;2642479;28;20043;-80
2022/10/26 01:56:56;;;;;;;21.98;3.67;;;;;;;7.86;100.00;98665.13;2642380;28;20044;-80
2022/10/26 01:58:38;;;;;;;40.15;5.95;;;;;;;7.74;100.00;98667.00;2642195;28;20394;-81
2022/10/26 02:00:11;;;;;;;27.52;3.90;;;;;;;7.71;100.00;98661.84;2642344;28;20039;-81
2022/10/26 02:01:32;;;;;;;20.63;4.63;;;;;;;7.67;100.00;98670.56;2642286;28;20048;-80
2022/10/26 02:02:48;;;;;;;26.80;4.55;;;;;;;7.65;100.00;98659.31;2642629;28;20532;-81
2022/10/26 02:04:12;;;;;;;33.67;5.22;;;;;;;7.64;100.00;98660.19;2642559;28;20300;-80
2022/10/26 02:05:50;;;;;;;28.13;3.55;;;;;;;7.62;100.00;98659.34;2642592;28;20134;-80
2022/10/26 02:07:08;;;;;;;21.52;3.97;;;;;;;7.57;100.00;98674.19;2642542;28;20059;-80
2022/10/26 02:08:34;;;;;;;28.70;4.72;;;;;;;7.53;100.00;98667.25;2642513;28;20137;-80
2022/10/26 02:10:02;;;;;;;61.88;5.10;;;;;;;7.51;100.00;98663.81;2642477;28;20585;-80
2022/10/26 02:11:21;;;;;;;28.13;4.40;;;;;;;7.52;100.00;98662.94;2642555;28;20047;-80
2022/10/26 02:12:50;;;;;;;39.95;5.93;;;;;;;7.61;100.00;98655.91;2642368;28;20056;-80
2022/10/26 02:14:32;;;;;;;20.88;4.00;;;;;;;7.46;100.00;98656.94;2642503;28;20124;-80
2022/10/26 02:15:55;;;;;;;18.67;3.83;;;;;;;7.48;100.00;98664.75;2642313;28;20122;-80
2022/10/26 02:17:22;;;;;;;21.27;4.38;;;;;;;7.55;100.00;98655.09;2642052;28;20049;-80
2022/10/26 02:18:52;;;;;;;38.72;4.70;;;;;;;7.40;100.00;98658.75;2642338;28;20699;-80
2022/10/26 02:20:15;;;;;;;21.65;4.10;;;;;;;7.48;100.00;98659.53;2642317;28;20561;-80
2022/10/26 02:21:36;;;;;;;34.60;4.53;;;;;;;7.55;100.00;98658.56;2642262;28;20043;-80
2022/10/26 02:22:54;;;;;;;41.17;4.55;;;;;;;7.64;100.00;98649.75;2642150;28;20044;-81
2022/10/26 02:24:12;;;;;;;42.53;5.05;;;;;;;7.25;100.00;98659.75;2642270;28;20078;-80
2022/10/26 02:25:32;;;;;;;29.70;4.40;;;;;;;7.33;100.00;98661.44;2642246;28;20059;-80
2022/10/26 02:26:51;;;;;;;29.80;4.60;;;;;;;7.53;100.00;98660.31;2641890;28;20054;-80
2022/10/26 02:28:11;;;;;;;19.98;3.67;;;;;;;7.60;100.00;98654.13;2642420;28;20047;-80
2022/10/26 02:29:29;;;;;;;18.20;4.07;;;;;;;7.32;100.00;98651.03;2642376;28;20543;-80
2022/10/26 02:30:47;;;;;;;25.30;3.97;;;;;;;7.31;100.00;98655.34;2642308;28;20071;-80
2022/10/26 02:32:07;;;;;;;22.88;4.15;;;;;;;7.19;100.00;98651.16;2642427;28;20248;-80
2022/10/26 02:33:25;;;;;;;35.75;4.82;;;;;;;7.35;100.00;98658.78;2642143;28;20048;-80
2022/10/26 02:34:44;;;;;;;30.67;4.03;;;;;;;7.49;100.00;98662.09;2642104;28;20051;-80
2022/10/26 02:36:04;;;;;;;19.60;3.83;;;;;;;7.57;100.00;98653.34;2642214;28;20043;-80
2022/10/26 02:37:23;;;;;;;36.53;4.65;;;;;;;7.53;100.00;98656.84;2642032;28;20047;-80
2022/10/26 02:38:41;;;;;;;11.80;3.30;;;;;;;7.20;100.00;98660.69;2642200;28;20047;-80
2022/10/26 02:39:59;;;;;;;20.10;4.53;;;;;;;7.45;100.00;98646.50;2642216;28;20055;-81
2022/10/26 02:41:16;;;;;;;29.30;4.38;;;;;;;7.41;100.00;98647.44;2642192;28;20050;-80
2022/10/26 02:42:32;;;;;;;23.38;3.67;;;;;;;7.38;100.00;98647.50;2641997;28;20483;-80
2022/10/26 02:43:55;;;;;;;20.40;4.75;;;;;;;7.27;100.00;98640.66;2642217;28;20056;-80
2022/10/26 02:45:33;;;;;;;15.07;3.75;;;;;;;7.31;100.00;98649.28;2642172;28;20056;-80
2022/10/26 02:46:50;;;;;;;25.02;3.58;;;;;;;7.41;100.00;98650.03;2641969;28;20054;-80
2022/10/26 02:48:06;;;;;;;17.35;4.10;;;;;;;7.40;100.00;98645.72;2641813;28;20134;-80
2022/10/26 02:49:22;;;;;;;13.68;3.78;;;;;;;7.38;100.00;98644.88;2641735;28;20047;-80
2022/10/26 02:51:09;;;;;;;26.30;3.63;;;;;;;7.23;100.00;98654.59;2642254;28;20067;-80
2022/10/26 02:52:37;;;;;;;37.88;3.75;;;;;;;7.29;100.00;98651.06;2641627;28;20043;-80
2022/10/26 02:54:12;;;;;;;18.10;3.60;;;;;;;7.39;100.00;98657.03;2642083;28;20047;-80
2022/10/26 02:55:39;;;;;;;20.25;3.55;;;;;;;7.35;100.00;98648.38;2641950;28;20055;-80
2022/10/26 02:57:11;;;;;;;9.65;3.47;;;;;;;7.35;100.00;98650.97;2641765;28;20051;-80
2022/10/26 02:58:32;;;;;;;36.42;4.13;;;;;;;7.24;100.00;98651.09;2641729;28;20043;-80
2022/10/26 02:59:48;;;;;;;39.58;4.28;;;;;;;7.20;100.00;98652.03;2630661;28;20051;-81
2022/10/26 03:01:04;;;;;;;24.27;5.13;;;;;;;7.12;100.00;98654.69;2634761;28;20063;-80
2022/10/26 03:02:21;;;;;;;32.58;4.63;;;;;;;7.16;100.00;98647.72;2642021;28;20505;-80
2022/10/26 03:03:36;;;;;;;28.05;3.90;;;;;;;7.18;100.00;98654.63;2641849;28;20088;-80
2022/10/26 03:04:54;;;;;;;32.72;4.43;;;;;;;7.31;100.00;98642.34;2641509;28;20078;-80
2022/10/26 03:06:10;;;;;;;11.95;3.85;;;;;;;7.25;100.00;98646.75;2641987;28;20047;-80
2022/10/26 03:07:25;;;;;;;9.07;3.58;;;;;;;7.26;100.00;98644.13;2641624;28;20401;-80
2022/10/26 03:08:41;;;;;;;22.08;3.95;;;;;;;7.34;100.00;98646.66;2641916;28;20055;-80
2022/10/26 03:09:56;;;;;;;29.42;5.13;;;;;;;7.48;100.00;98646.50;2642016;28;20508;-80
2022/10/26 03:11:12;;;;;;;47.92;4.50;;;;;;;7.52;100.00;98639.50;2641464;28;20044;-80
2022/10/26 03:12:27;;;;;;;24.88;4.20;;;;;;;7.59;100.00;98644.59;2641959;28;20647;-80
2022/10/26 03:13:43;;;;;;;39.80;4.28;;;;;;;7.52;100.00;98644.69;2642012;28;20051;-80
2022/10/26 03:14:59;;;;;;;37.28;4.70;;;;;;;7.51;100.00;98643.84;2641744;28;20074;-81
2022/10/26 03:16:14;;;;;;;42.90;4.68;;;;;;;7.55;100.00;98637.72;2641724;28;20493;-80
2022/10/26 03:17:30;;;;;;;10.50;3.25;;;;;;;7.47;100.00;98643.03;2641315;28;20131;-81
2022/10/26 03:18:45;;;;;;;9.38;3.03;;;;;;;7.38;100.00;98645.72;2641502;28;20039;-79
2022/10/26 03:20:01;;;;;;;20.80;3.35;;;;;;;7.35;100.00;98649.25;2641582;28;20043;-79
2022/10/26 03:21:17;;;;;;;11.00;3.45;;;;;;;7.42;100.00;98650.03;2641863;28;20401;-78
2022/10/26 03:22:32;;;;;;;4.72;2.83;;;;;;;7.39;100.00;98649.22;2641596;28;20063;-78
2022/10/26 03:23:49;;;;;;;14.98;3.35;;;;;;;7.51;100.00;98643.84;2641659;28;20048;-78
2022/10/26 03:25:05;;;;;;;38.95;4.93;;;;;;;7.60;100.00;98646.31;2641335;28;20039;-79
2022/10/26 03:26:21;;;;;;;18.90;3.65;;;;;;;7.52;100.00;98656.00;2641667;28;20051;-78
2022/10/26 03:27:36;;;;;;;36.88;3.88;;;;;;;7.20;100.00;98646.81;2641588;28;20449;-78
2022/10/26 03:28:52;;;;;;;60.83;5.13;;;;;;;7.25;100.00;98650.22;2641568;28;20059;-78
2022/10/26 03:30:08;;;;;;;39.35;4.30;;;;;;;7.37;100.00;98646.59;2641584;28;20078;-79
2022/10/26 03:31:24;;;;;;;45.10;4.63;;;;;;;7.30;100.00;98645.81;2641363;28;20058;-81
2022/10/26 03:32:40;;;;;;;58.22;4.57;;;;;;;7.12;100.00;98643.44;2641887;28;20048;-79
2022/10/26 03:33:55;;;;;;;112.43;9.02;;;;;;;7.24;100.00;98645.91;2641710;28;20043;-79
2022/10/26 03:35:11;;;;;;;74.28;5.18;;;;;;;7.21;100.00;98646.78;2641793;28;20051;-79
2022/10/26 03:36:26;;;;;;;60.25;5.80;;;;;;;7.22;100.00;98652.88;2641820;28;20130;-80
2022/10/26 03:37:42;;;;;;;81.35;6.18;;;;;;;7.00;100.00;98647.03;2641678;28;20051;-79
2022/10/26 03:38:57;;;;;;;50.92;5.07;;;;;;;6.99;100.00;98648.75;2641410;28;20056;-79
2022/10/26 03:40:13;;;;;;;81.07;7.40;;;;;;;7.05;100.00;98648.72;2641310;28;20051;-80
2022/10/26 03:41:29;;;;;;;49.45;5.93;;;;;;;7.11;100.00;98649.50;2639535;28;20043;-80
2022/10/26 03:42:45;;;;;;;171.95;9.60;;;;;;;7.19;100.00;98647.66;2641514;28;20150;-80
2022/10/26 03:44:00;;;;;;;134.98;8.82;;;;;;;7.29;100.00;98649.31;2641648;28;20477;-80
2022/10/26 03:45:16;;;;;;;148.10;9.77;;;;;;;7.35;100.00;98654.47;2641731;28;20039;-80
2022/10/26 03:46:31;;;;;;;108.05;8.00;;;;;;;7.24;100.00;98652.84;2641691;28;20047;-80
2022/10/26 03:47:48;;;;;;;106.53;7.45;;;;;;;7.23;100.00;98659.81;2641456;28;20048;-80
2022/10/26 03:49:04;;;;;;;163.82;9.85;;;;;;;7.27;100.00;98658.88;2641842;28;20063;-80
2022/10/26 03:50:21;;;;;;;91.82;6.63;;;;;;;7.33;100.00;98648.41;2638973;28;20171;-80
2022/10/26 03:51:36;;;;;;;78.38;6.80;;;;;;;7.44;100.00;98652.59;2639981;28;20092;-80
2022/10/26 03:52:52;;;;;;;82.30;7.40;;;;;;;7.37;100.00;98657.03;2641502;28;20137;-80
2022/10/26 03:54:08;;;;;;;53.72;7.65;;;;;;;7.31;100.00;98654.50;2641041;28;20048;-80
2022/10/26 03:55:23;;;;;;;96.82;6.38;;;;;;;7.31;100.00;98646.69;2641060;28;20054;-80
2022/10/26 03:56:39;;;;;;;76.45;5.80;;;;;;;7.33;100.00;98650.13;2640141;28;20188;-80
2022/10/26 03:57:54;;;;;;;110.70;7.32;;;;;;;7.32;100.00;98651.03;2640254;28;20083;-80
2022/10/26 03:59:10;;;;;;;59.10;5.53;;;;;;;7.33;100.00;98647.53;2641125;28;20497;-80
2022/10/26 04:00:25;;;;;;;85.05;7.25;;;;;;;7.25;100.00;98651.94;2639921;28;20056;-80
2022/10/26 04:01:41;;;;;;;103.25;8.38;;;;;;;7.31;100.00;98662.31;2640249;28;20729;-79
2022/10/26 04:02:58;;;;;;;111.25;9.32;;;;;;;7.31;100.00;98657.97;2632997;28;20051;-79
2022/10/26 04:04:14;;;;;;;62.17;5.65;;;;;;;7.30;100.00;98665.81;2640765;28;20458;-79
2022/10/26 04:05:29;;;;;;;49.22;4.68;;;;;;;7.26;100.00;98666.69;2642581;28;20044;-79
2022/10/26 04:06:45;;;;;;;76.25;7.30;;;;;;;7.12;100.00;98657.28;2642912;28;20058;-79
2022/10/26 04:08:02;;;;;;;31.98;5.32;;;;;;;7.09;100.00;98661.69;2643326;28;20469;-79
2022/10/26 04:09:17;;;;;;;57.42;5.85;;;;;;;7.19;100.00;98652.88;2643276;28;20044;-79
2022/10/26 04:10:33;;;;;;;69.45;7.10;;;;;;;7.23;100.00;98662.41;2643509;28;20108;-79
2022/10/26 04:11:48;;;;;;;23.70;5.40;;;;;;;7.23;100.00;98658.94;2643659;28;20067;-79
2022/10/26 04:13:04;;;;;;;39.35;5.30;;;;;;;7.41;100.00;98663.06;2643535;28;20503;-79
2022/10/26 04:14:19;;;;;;;52.33;5.30;;;;;;;7.43;100.00;98662.19;2643538;28;20424;-79
2022/10/26 04:15:35;;;;;;;44.60;6.13;;;;;;;7.51;100.00;98666.44;2642640;28;20097;-79
2022/10/26 04:16:51;;;;;;;43.50;5.97;;;;;;;7.30;100.00;98666.66;2643459;28;20082;-84
2022/10/26 04:18:07;;;;;;;68.38;6.10;;;;;;;7.40;100.00;98671.78;2643546;28;20104;-79
2022/10/26 04:19:23;;;;;;;23.70;4.47;;;;;;;7.19;100.00;98676.31;2643759;28;20126;-79
2022/10/26 04:20:41;;;;;;;73.75;6.32;;;;;;;7.12;100.00;98675.50;2643428;28;20047;-79
2022/10/26 04:21:56;;;;;;;38.60;4.45;;;;;;;7.02;100.00;98677.34;2642656;28;20405;-79
2022/10/26 04:23:14;;;;;;;40.33;5.30;;;;;;;6.87;100.00;98673.19;2642907;28;20609;-79
2022/10/26 04:24:30;;;;;;;22.05;4.28;;;;;;;6.77;100.00;98672.41;2636189;28;20043;-80
2022/10/26 04:25:46;;;;;;;23.75;5.30;;;;;;;6.83;100.00;98671.47;2641530;27;20064;-79
2022/10/26 04:27:01;;;;;;;37.33;4.93;;;;;;;7.01;100.00;98669.56;2642917;28;20101;-79
2022/10/26 04:28:17;;;;;;;22.65;5.68;;;;;;;7.13;100.00;98668.59;2642732;28;20058;-80
2022/10/26 04:29:32;;;;;;;36.80;6.05;;;;;;;7.29;100.00;98669.28;2641830;28;20504;-80
2022/10/26 04:30:48;;;;;;;67.55;7.82;;;;;;;7.20;100.00;98668.50;2642527;28;20509;-80
2022/10/26 04:32:03;;;;;;;83.68;7.00;;;;;;;7.26;100.00;98664.09;2642907;28;20140;-79
2022/10/26 04:33:19;;;;;;;35.40;6.25;;;;;;;7.01;100.00;98664.38;2642870;28;20074;-79
2022/10/26 04:34:35;;;;;;;69.80;7.43;;;;;;;7.11;100.00;98670.34;2642907;28;20499;-80
2022/10/26 04:35:50;;;;;;;63.10;5.85;;;;;;;7.10;100.00;98664.25;2642649;28;20050;-80
2022/10/26 04:37:06;;;;;;;133.93;9.23;;;;;;;7.15;100.00;98662.50;2642939;28;20085;-80
2022/10/26 04:38:21;;;;;;;91.07;6.72;;;;;;;7.12;100.00;98662.50;2642832;28;20441;-80
2022/10/26 04:39:37;;;;;;;101.03;8.40;;;;;;;7.04;100.00;98670.38;2642640;28;20047;-80
2022/10/26 04:40:52;;;;;;;64.95;6.22;;;;;;;7.00;100.00;98670.47;2642850;28;20048;-80
2022/10/26 04:42:08;;;;;;;60.40;5.95;;;;;;;7.08;100.00;98673.84;2642701;28;20048;-80
2022/10/26 04:43:24;;;;;;;16.88;4.20;;;;;;;7.11;100.00;98671.19;2642792;28;20140;-80
2022/10/26 04:44:39;;;;;;;23.25;4.53;;;;;;;7.07;100.00;98670.38;2642791;28;20044;-80
2022/10/26 04:45:56;;;;;;;12.05;4.05;;;;;;;7.08;100.00;98663.41;2642575;28;20853;-80
2022/10/26 04:47:11;;;;;;;6.85;3.80;;;;;;;7.07;100.00;98669.50;2642591;28;20131;-80
2022/10/26 04:48:27;;;;;;;6.50;3.90;;;;;;;7.09;100.00;98659.94;2642542;28;20048;-80
2022/10/26 04:49:43;;;;;;;5.80;3.67;;;;;;;7.01;100.00;98665.22;2642482;28;20097;-80
2022/10/26 04:50:59;;;;;;;10.27;3.80;;;;;;;6.90;100.00;98661.84;2642791;28;20578;-80
2022/10/26 04:52:14;;;;;;;11.48;3.90;;;;;;;6.95;100.00;98665.28;2642481;28;20071;-80
2022/10/26 04:53:30;;;;;;;34.47;5.05;;;;;;;7.08;100.00;98663.41;2642649;28;20119;-80
2022/10/26 04:54:46;;;;;;;14.77;3.70;;;;;;;7.17;100.00;98660.72;2642665;28;20355;-80
2022/10/26 04:56:01;;;;;;;8.77;3.78;;;;;;;7.30;100.00;98666.66;2642394;28;20051;-79
2022/10/26 04:57:17;;;;;;;7.07;3.58;;;;;;;7.33;100.00;98665.75;2642583;28;20501;-79
2022/10/26 04:58:32;;;;;;;6.18;3.22;;;;;;;7.40;100.00;98666.56;2642470;28;20059;-79
2022/10/26 04:59:48;;;;;;;9.57;3.78;;;;;;;7.41;100.00;98663.94;2642353;28;20485;-80
2022/10/26 05:01:04;;;;;;;8.98;3.70;;;;;;;7.44;100.00;98666.50;2642682;28;20047;-80
2022/10/26 05:02:19;;;;;;;6.47;3.38;;;;;;;7.47;100.00;98671.69;2642654;28;20051;-79
2022/10/26 05:03:35;;;;;;;18.65;4.63;;;;;;;7.30;100.00;98671.88;2642533;28;20435;-80
2022/10/26 05:04:51;;;;;;;8.50;3.88;;;;;;;7.09;100.00;98674.72;2642284;28;20039;-80
2022/10/26 05:06:06;;;;;;;9.15;3.63;;;;;;;7.05;100.00;98676.47;2642192;28;20051;-80
2022/10/26 05:07:22;;;;;;;11.93;3.65;;;;;;;6.95;100.00;98675.72;2642535;28;20490;-80
2022/10/26 05:08:37;;;;;;;7.85;3.78;;;;;;;6.99;100.00;98674.78;2639573;28;20120;-80
2022/10/26 05:09:53;;;;;;;12.27;3.72;;;;;;;7.17;100.00;98675.47;2642599;28;20035;-80
2022/10/26 05:11:09;;;;;;;27.02;4.90;;;;;;;7.34;100.00;98673.56;2642428;28;20061;-79
2022/10/26 05:12:24;;;;;;;23.17;4.68;;;;;;;7.37;100.00;98677.88;2642587;28;20645;-80
2022/10/26 05:13:40;;;;;;;54.05;7.57;;;;;;;7.37;100.00;98675.25;2642331;28;20055;-80
2022/10/26 05:14:57;;;;;;;45.67;6.38;;;;;;;7.39;100.00;98678.72;2641894;28;20039;-79
2022/10/26 05:16:14;;;;;;;49.92;6.78;;;;;;;7.42;100.00;98677.81;2642213;28;20506;-79
2022/10/26 05:17:29;;;;;;;50.90;5.60;;;;;;;7.47;100.00;98681.22;2642254;28;20070;-79
2022/10/26 05:18:48;;;;;;;149.75;11.45;;;;;;;7.48;100.00;98670.78;2641897;28;20131;-81
2022/10/26 05:20:05;;;;;;;118.13;9.38;;;;;;;7.39;100.00;98673.50;2642176;28;20409;-79
2022/10/26 05:21:20;;;;;;;66.80;7.15;;;;;;;7.27;100.00;98674.50;2642624;28;20050;-79
2022/10/26 05:22:36;;;;;;;57.33;6.60;;;;;;;7.20;100.00;98676.31;2642702;28;20051;-79
2022/10/26 05:23:54;;;;;;;16.55;4.68;;;;;;;7.04;100.00;98670.38;2641573;28;20058;-79
2022/10/26 05:25:09;;;;;;;86.15;7.82;;;;;;;7.25;100.00;98672.78;2640811;28;20051;-79
2022/10/26 05:26:25;;;;;;;29.40;5.43;;;;;;;7.04;100.00;98677.34;2641113;28;20052;-82
2022/10/26 05:27:40;;;;;;;34.38;6.10;;;;;;;7.23;100.00;98670.22;2641273;28;20047;-79
2022/10/26 05:28:56;;;;;;;17.92;5.35;;;;;;;7.20;100.00;98665.91;2640973;28;20093;-79
2022/10/26 05:30:12;;;;;;;51.70;6.95;;;;;;;7.51;100.00;98671.63;2641087;28;20053;-79
2022/10/26 05:31:28;;;;;;;40.25;6.53;;;;;;;7.49;100.00;98677.72;2641001;28;20417;-79
2022/10/26 05:32:43;;;;;;;31.90;5.82;;;;;;;7.43;100.00;98677.81;2641192;28;20058;-80
2022/10/26 05:33:59;;;;;;;12.15;4.72;;;;;;;7.48;100.00;98675.16;2641107;28;20051;-79
2022/10/26 05:35:14;;;;;;;10.00;5.10;;;;;;;7.42;100.00;98685.63;2641227;28;20049;-79
2022/10/26 05:36:30;;;;;;;9.68;4.95;;;;;;;7.55;100.00;98687.22;2640992;28;20075;-81
2022/10/26 05:37:46;;;;;;;16.35;4.85;;;;;;;7.33;100.00;98684.88;2640965;28;20048;-79
2022/10/26 05:39:02;;;;;;;27.50;4.80;;;;;;;7.36;100.00;98689.16;2640827;28;20071;-79
2022/10/26 05:40:17;;;;;;;12.90;4.78;;;;;;;7.45;100.00;98686.47;2641079;28;20261;-79
2022/10/26 05:41:33;;;;;;;20.40;4.93;;;;;;;7.47;100.00;98683.81;2640901;28;20046;-79
2022/10/26 05:42:49;;;;;;;18.00;4.95;;;;;;;7.40;100.00;98685.63;2641077;28;20050;-80
2022/10/26 05:44:05;;;;;;;7.65;4.47;;;;;;;7.47;100.00;98694.25;2640944;28;20047;-79
2022/10/26 05:45:20;;;;;;;20.73;4.72;;;;;;;7.48;100.00;98691.63;2641058;28;20104;-79
2022/10/26 05:46:36;;;;;;;16.30;4.75;;;;;;;7.45;100.00;98691.69;2641899;28;20067;-80
2022/10/26 05:47:51;;;;;;;48.67;7.05;;;;;;;7.58;100.00;98689.78;2639308;28;20058;-79
2022/10/26 05:49:07;;;;;;;69.65;6.53;;;;;;;7.67;100.00;98690.56;2641771;28;20083;-79
2022/10/26 05:50:23;;;;;;;55.40;6.78;;;;;;;7.69;100.00;98700.09;2641439;28;20482;-79
2022/10/26 05:51:38;;;;;;;22.55;4.53;;;;;;;7.68;100.00;98698.34;2642428;28;20055;-79
2022/10/26 05:52:54;;;;;;;26.13;4.32;;;;;;;7.52;100.00;98692.47;2642393;28;20094;-79
2022/10/26 05:54:10;;;;;;;11.77;3.55;;;;;;;7.34;100.00;98688.31;2642091;28;20485;-79
2022/10/26 05:55:26;;;;;;;13.18;4.40;;;;;;;7.41;100.00;98692.59;2641822;28;20064;-79
2022/10/26 05:56:41;;;;;;;6.53;3.38;;;;;;;7.34;100.00;98694.41;2641968;28;20498;-79
2022/10/26 05:57:57;;;;;;;14.60;3.53;;;;;;;7.37;100.00;98693.50;2642100;28;20054;-79
2022/10/26 05:59:14;;;;;;;19.65;4.57;;;;;;;7.19;100.00;98703.22;2642350;28;20101;-79
2022/10/26 06:00:30;;;;;;;21.77;4.70;;;;;;;7.28;100.00;98698.81;2642308;28;20350;-79
2022/10/26 06:02:00;;;;;;;66.50;8.43;;;;;;;7.26;100.00;98700.56;2642248;28;20156;-79
2022/10/26 06:03:15;;;;;;;35.10;4.32;;;;;;;7.31;100.00;98698.78;2642288;28;20474;-79
2022/10/26 06:04:40;;;;;;;24.65;4.40;;;;;;;7.42;100.00;98704.75;2642107;28;20323;-79